createdAt,value
2018-03-19T00:00:10.032Z,10.32
2018-03-19T00:02:37.571Z,10.27
2018-03-19T00:05:05.068Z,9.20
2018-03-19T00:07:32.578Z,8.50
2018-03-19T00:10:00.052Z,9.77
2018-03-19T00:12:27.643Z,11.32
2018-03-19T00:14:55.132Z,9.85
2018-03-19T00:17:22.621Z,9.93
2018-03-19T00:19:50.123Z,9.85
2018-03-19T00:22:18.763Z,9.75
2018-03-19T00:24:47.713Z,9.95
2018-03-19T00:27:16.555Z,9.02
2018-03-19T00:29:44.020Z,9.63
2018-03-19T00:32:11.591Z,9.55
2018-03-19T00:34:39.082Z,9.18
2018-03-19T00:37:06.722Z,8.73
2018-03-19T00:39:34.630Z,9.57
2018-03-19T00:42:02.133Z,12.32
2018-03-19T00:44:29.979Z,9.75
2018-03-19T00:46:57.687Z,9.10
2018-03-19T01:02:23.908Z,9.20
2018-03-19T01:04:51.446Z,9.48
2018-03-19T01:07:18.932Z,8.90
2018-03-19T01:09:46.416Z,9.93
2018-03-19T01:12:14.927Z,9.57
2018-03-19T01:14:42.398Z,8.82
2018-03-19T01:17:10.808Z,9.10
2018-03-19T01:19:38.548Z,8.80
2018-03-19T01:22:06.044Z,9.82
2018-03-19T01:24:33.520Z,9.95
2018-03-19T01:27:01.088Z,9.02
2018-03-19T01:29:28.596Z,8.77
2018-03-19T01:31:56.115Z,9.65
2018-03-19T01:34:23.604Z,9.50
2018-03-19T01:36:51.125Z,9.75
2018-03-19T01:39:18.667Z,8.40
2018-03-19T01:41:46.245Z,8.77
2018-03-19T01:44:13.784Z,10.05
2018-03-19T01:46:41.314Z,9.82
2018-03-19T01:49:08.800Z,8.73
2018-03-19T01:51:37.368Z,9.20
2018-03-19T01:54:04.879Z,9.43
2018-03-19T01:56:32.539Z,10.10
2018-03-19T01:59:00.012Z,9.05
2018-03-19T02:01:27.524Z,8.68
2018-03-19T02:03:55.099Z,9.07
2018-03-19T02:06:22.674Z,9.15
2018-03-19T02:08:50.490Z,9.27
2018-03-19T02:11:18.017Z,9.80
2018-03-19T02:13:45.496Z,8.20
2018-03-19T02:16:13.088Z,8.82
2018-03-19T02:18:40.627Z,10.13
2018-03-19T02:21:08.811Z,8.75
2018-03-19T02:23:36.331Z,9.50
2018-03-19T02:26:03.916Z,9.48
2018-03-19T02:28:31.485Z,10.02
2018-03-19T02:30:58.982Z,9.18
2018-03-19T02:33:26.479Z,9.93
2018-03-19T02:35:54.032Z,10.95
2018-03-19T02:38:21.549Z,10.02
2018-03-19T02:40:49.029Z,9.82
2018-03-19T02:43:16.533Z,10.73
2018-03-19T02:45:44.061Z,9.93
2018-03-19T02:48:11.548Z,10.93
2018-03-19T02:50:39.055Z,8.88
2018-03-19T02:53:06.616Z,9.15
2018-03-19T02:55:34.108Z,10.70
2018-03-19T02:58:01.607Z,10.40
2018-03-19T03:00:29.921Z,9.90
2018-03-19T03:02:57.392Z,11.00
2018-03-19T03:05:24.888Z,10.45
2018-03-19T03:07:52.427Z,10.07
2018-03-19T03:10:19.968Z,10.40
2018-03-19T03:12:47.474Z,11.57
2018-03-19T03:15:15.133Z,9.80
2018-03-19T03:17:42.690Z,9.18
2018-03-19T03:20:10.186Z,11.40
2018-03-19T03:22:37.670Z,10.20
2018-03-19T03:25:05.196Z,10.90
2018-03-19T03:27:32.667Z,10.13
2018-03-19T03:30:00.169Z,10.80
2018-03-19T03:32:28.418Z,10.68
2018-03-19T03:34:55.892Z,9.50
2018-03-19T03:37:23.420Z,10.52
2018-03-19T03:39:50.887Z,9.90
2018-03-19T03:42:18.356Z,10.20
2018-03-19T03:44:45.825Z,10.52
2018-03-19T03:47:13.320Z,9.57
2018-03-19T03:49:40.810Z,11.85
2018-03-19T03:52:08.323Z,10.85
2018-03-19T03:54:35.804Z,11.10
2018-03-19T03:57:03.294Z,11.10
2018-03-19T03:59:30.821Z,10.95
2018-03-19T04:01:58.331Z,11.10
2018-03-19T04:04:25.810Z,11.55
2018-03-19T04:06:53.302Z,11.68
2018-03-19T04:09:21.160Z,10.20
2018-03-19T04:11:48.646Z,9.93
2018-03-19T04:14:16.409Z,10.98
2018-03-19T04:16:43.897Z,11.07
2018-03-19T04:19:11.386Z,10.75
2018-03-19T04:21:38.868Z,10.98
2018-03-19T04:24:06.349Z,10.82
2018-03-19T04:26:33.933Z,10.93
2018-03-19T04:29:03.455Z,11.25
2018-03-19T04:31:30.932Z,11.05
2018-03-19T04:33:58.644Z,12.57
2018-03-19T04:36:26.180Z,11.35
2018-03-19T04:38:53.662Z,10.90
2018-03-19T04:41:21.155Z,10.43
2018-03-19T04:43:48.712Z,11.73
2018-03-19T04:46:16.246Z,11.93
2018-03-19T04:48:43.985Z,10.35
2018-03-19T04:51:11.460Z,10.85
2018-03-19T04:53:38.940Z,11.20
2018-03-19T04:56:06.419Z,11.82
2018-03-19T04:58:34.252Z,11.05
2018-03-19T05:01:01.757Z,11.80
2018-03-19T05:03:29.290Z,11.80
2018-03-19T05:05:57.827Z,11.52
2018-03-19T05:08:25.309Z,11.05
2018-03-19T05:10:54.443Z,12.45
2018-03-19T05:13:27.200Z,12.02
2018-03-19T05:15:55.960Z,11.48
2018-03-19T05:18:24.967Z,10.52
2018-03-19T05:20:53.278Z,12.80
2018-03-19T05:23:20.846Z,11.57
2018-03-19T05:25:48.331Z,11.35
2018-03-19T05:28:15.943Z,12.37
2018-03-19T05:30:43.838Z,11.43
2018-03-19T05:33:11.543Z,11.80
2018-03-19T05:35:39.667Z,11.70
2018-03-19T05:38:07.177Z,12.52
2018-03-19T05:40:34.805Z,14.27
2018-03-19T05:43:02.319Z,13.77
2018-03-19T05:45:29.808Z,13.18
2018-03-19T05:47:57.295Z,12.52
2018-03-19T05:50:24.782Z,10.73
2018-03-19T05:52:52.261Z,12.57
2018-03-19T05:55:19.744Z,12.63
2018-03-19T05:57:47.236Z,12.90
2018-03-19T06:00:14.736Z,12.20
2018-03-19T06:02:42.224Z,12.40
2018-03-19T06:05:09.711Z,12.25
2018-03-19T06:07:37.204Z,12.45
2018-03-19T06:10:04.709Z,11.88
2018-03-19T06:12:32.191Z,11.25
2018-03-19T06:14:59.672Z,12.18
2018-03-19T06:17:27.165Z,13.77
2018-03-19T06:19:54.663Z,12.30
2018-03-19T06:22:22.196Z,12.07
2018-03-19T06:24:49.702Z,12.93
2018-03-19T06:27:17.242Z,11.50
2018-03-19T06:29:44.738Z,12.27
2018-03-19T06:32:13.650Z,12.10
2018-03-19T06:34:41.184Z,12.90
2018-03-19T06:37:08.715Z,12.48
2018-03-19T06:39:36.198Z,12.98
2018-03-19T06:42:03.692Z,12.48
2018-03-19T06:44:31.263Z,12.05
2018-03-19T06:46:58.769Z,11.60
2018-03-19T06:49:26.255Z,11.85
2018-03-19T06:51:53.766Z,14.50
2018-03-19T06:54:21.253Z,11.73
2018-03-19T06:56:48.819Z,12.50
2018-03-19T06:59:16.328Z,12.15
2018-03-19T07:01:43.812Z,13.73
2018-03-19T07:04:11.380Z,13.18
2018-03-19T07:06:38.881Z,12.73
2018-03-19T07:09:06.377Z,12.05
2018-03-19T07:11:34.872Z,11.60
2018-03-19T07:14:02.326Z,11.52
2018-03-19T07:16:29.807Z,18.52
2018-03-19T07:18:57.330Z,13.32
2018-03-19T07:21:24.834Z,11.93
2018-03-19T07:23:52.394Z,13.73
2018-03-19T07:26:19.876Z,11.05
2018-03-19T07:28:47.430Z,12.73
2018-03-19T07:31:14.918Z,13.45
2018-03-19T07:33:42.523Z,13.77
2018-03-19T07:36:10.082Z,12.77
2018-03-19T07:38:37.691Z,11.50
2018-03-19T07:41:05.180Z,11.48
2018-03-19T07:43:32.666Z,14.02
2018-03-19T07:46:00.200Z,11.73
2018-03-19T07:48:27.966Z,12.37
2018-03-19T07:50:55.460Z,12.27
2018-03-19T07:53:22.937Z,13.57
2018-03-19T07:55:50.477Z,12.37
2018-03-19T07:58:18.603Z,12.40
2018-03-19T08:00:46.227Z,11.93
2018-03-19T08:03:13.694Z,13.43
2018-03-19T08:05:41.156Z,14.18
2018-03-19T08:08:08.617Z,13.27
2018-03-19T08:10:36.292Z,12.00
2018-03-19T08:13:03.768Z,12.10
2018-03-19T08:15:31.237Z,12.77
2018-03-19T08:17:58.716Z,12.18
2018-03-19T08:20:26.181Z,12.63
2018-03-19T08:22:53.687Z,11.10
2018-03-19T08:25:21.147Z,12.98
2018-03-19T08:27:48.644Z,13.27
2018-03-19T08:30:16.131Z,12.25
2018-03-19T08:32:43.627Z,12.50
2018-03-19T08:35:11.085Z,12.18
2018-03-19T08:37:38.663Z,12.37
2018-03-19T08:40:06.126Z,11.68
2018-03-19T08:42:33.604Z,12.35
2018-03-19T08:45:01.060Z,11.95
2018-03-19T08:47:28.545Z,11.43
2018-03-19T08:49:56.032Z,12.23
2018-03-19T08:52:23.491Z,11.57
2018-03-19T08:54:50.974Z,12.02
2018-03-19T08:57:18.475Z,12.25
2018-03-19T08:59:46.035Z,11.50
2018-03-19T09:02:13.577Z,13.10
2018-03-19T09:04:41.035Z,12.18
2018-03-19T09:07:08.581Z,12.23
2018-03-19T09:09:36.794Z,13.13
2018-03-19T09:12:04.337Z,12.25
2018-03-19T09:14:31.991Z,11.43
2018-03-19T09:16:59.491Z,12.68
2018-03-19T09:19:26.967Z,11.73
2018-03-19T09:21:54.464Z,12.07
2018-03-19T09:24:21.947Z,11.60
2018-03-19T09:26:49.448Z,12.20
2018-03-19T09:29:16.929Z,11.00
2018-03-19T09:31:45.755Z,11.85
2018-03-19T09:34:13.421Z,11.05
2018-03-19T09:36:40.919Z,12.20
2018-03-19T09:39:08.374Z,10.93
2018-03-19T09:41:35.866Z,11.40
2018-03-19T09:44:03.351Z,11.63
2018-03-19T09:46:31.707Z,10.50
2018-03-19T09:48:59.178Z,11.32
2018-03-19T09:51:26.671Z,11.12
2018-03-19T09:53:54.136Z,11.10
2018-03-19T09:56:21.653Z,10.60
2018-03-19T09:58:49.147Z,12.07
2018-03-19T10:01:16.674Z,12.40
2018-03-19T10:03:44.164Z,11.75
2018-03-19T10:06:11.650Z,11.48
2018-03-19T10:08:39.120Z,11.50
2018-03-19T10:11:06.604Z,12.35
2018-03-19T10:13:34.113Z,12.07
2018-03-19T10:16:01.583Z,13.13
2018-03-19T10:18:29.773Z,11.80
2018-03-19T10:20:57.269Z,11.70
2018-03-19T10:23:24.766Z,12.45
2018-03-19T10:25:52.307Z,13.25
2018-03-19T10:28:19.776Z,12.25
2018-03-19T10:30:47.251Z,11.07
2018-03-19T10:33:14.884Z,10.95
2018-03-19T10:35:42.405Z,11.20
2018-03-19T10:38:09.866Z,13.60
2018-03-19T10:40:37.354Z,10.68
2018-03-19T10:43:04.894Z,13.07
2018-03-19T10:45:32.453Z,11.65
2018-03-19T10:47:59.949Z,11.93
2018-03-19T10:52:59.207Z,12.48
2018-03-19T10:58:02.063Z,13.07
2018-03-19T11:00:29.527Z,12.75
2018-03-19T11:03:02.419Z,13.60
2018-03-19T11:05:30.819Z,11.73
2018-03-19T11:08:03.843Z,13.13
2018-03-19T11:10:32.718Z,12.77
2018-03-19T11:13:00.179Z,15.05
2018-03-19T11:15:27.688Z,13.48
2018-03-19T11:17:55.159Z,13.20
2018-03-19T11:20:22.635Z,13.43
2018-03-19T11:22:50.133Z,12.82
2018-03-19T11:25:17.629Z,12.82
2018-03-19T11:27:45.098Z,14.77
2018-03-19T11:30:12.655Z,12.70
2018-03-19T11:32:40.143Z,13.93
2018-03-19T11:35:07.660Z,13.45
2018-03-19T11:37:35.220Z,12.55
2018-03-19T11:40:02.770Z,13.52
2018-03-19T11:42:30.240Z,12.85
2018-03-19T11:44:57.741Z,12.93
2018-03-19T11:47:25.234Z,13.80
2018-03-19T11:49:52.758Z,13.88
2018-03-19T11:52:20.238Z,13.55
2018-03-19T11:54:47.972Z,14.60
2018-03-19T11:57:15.482Z,14.13
2018-03-19T11:59:43.008Z,13.70
2018-03-19T12:02:10.513Z,13.02
2018-03-19T12:04:37.983Z,13.43
2018-03-19T12:07:05.483Z,13.70
2018-03-19T12:09:32.979Z,14.87
2018-03-19T12:12:00.434Z,13.48
2018-03-19T12:14:27.980Z,13.10
2018-03-19T12:16:55.448Z,14.40
2018-03-19T12:19:22.942Z,14.50
2018-03-19T12:21:50.503Z,14.50
2018-03-19T12:24:17.980Z,15.00
2018-03-19T12:26:45.462Z,15.63
2018-03-19T12:29:13.029Z,14.85
2018-03-19T12:31:40.844Z,14.65
2018-03-19T12:34:08.319Z,15.05
2018-03-19T12:36:35.827Z,14.93
2018-03-19T12:39:03.343Z,14.95
2018-03-19T12:41:30.833Z,13.18
2018-03-19T12:43:58.301Z,15.38
2018-03-19T12:46:25.765Z,14.15
2018-03-19T12:48:53.239Z,14.02
2018-03-19T12:51:20.728Z,15.13
2018-03-19T12:53:48.196Z,14.73
2018-03-19T12:56:15.832Z,13.73
2018-03-19T12:58:43.330Z,14.35
2018-03-19T13:01:10.787Z,14.50
2018-03-19T13:03:38.284Z,15.35
2018-03-19T13:06:05.812Z,14.82
2018-03-19T13:08:33.412Z,15.10
2018-03-19T13:11:00.897Z,16.73
2018-03-19T13:13:28.411Z,16.00
2018-03-19T13:15:55.874Z,16.80
2018-03-19T13:18:24.728Z,15.90
2018-03-19T13:20:52.218Z,15.68
2018-03-19T13:23:22.381Z,15.25
2018-03-19T13:25:50.436Z,15.77
2018-03-19T13:28:19.674Z,16.20
2018-03-19T13:30:47.260Z,15.38
2018-03-19T13:33:14.878Z,15.65
2018-03-19T13:35:42.365Z,15.30
2018-03-19T13:38:09.842Z,16.85
2018-03-19T13:40:37.339Z,16.85
2018-03-19T13:43:05.696Z,16.23
2018-03-19T13:45:34.250Z,15.50
2018-03-19T13:48:02.676Z,17.25
2018-03-19T13:50:30.149Z,15.10
2018-03-19T13:52:57.626Z,16.10
2018-03-19T13:55:25.151Z,15.25
2018-03-19T13:57:52.616Z,17.60
2018-03-19T14:00:20.120Z,16.10
2018-03-19T14:02:48.300Z,16.60
2018-03-19T14:05:15.762Z,17.20
2018-03-19T14:07:43.231Z,16.65
2018-03-19T14:10:10.722Z,15.80
2018-03-19T14:12:38.210Z,16.23
2018-03-19T14:15:05.699Z,16.62
2018-03-19T14:17:33.159Z,17.55
2018-03-19T14:20:00.645Z,17.33
2018-03-19T14:22:28.140Z,18.23
2018-03-19T14:24:55.574Z,16.67
2018-03-19T14:27:23.066Z,16.33
2018-03-19T14:29:50.569Z,16.65
2018-03-19T14:32:18.105Z,18.05
2018-03-19T14:34:45.595Z,18.35
2018-03-19T14:37:13.051Z,16.15
2018-03-19T14:39:41.221Z,17.58
2018-03-19T14:42:08.722Z,19.80
2018-03-19T14:44:36.189Z,19.83
2018-03-19T14:47:03.651Z,19.33
2018-03-19T14:49:31.128Z,17.25
2018-03-19T14:51:58.609Z,17.42
2018-03-19T14:54:26.299Z,16.80
2018-03-19T14:56:53.814Z,18.35
2018-03-19T14:59:21.280Z,17.55
2018-03-19T15:01:48.740Z,17.10
2018-03-19T15:04:16.900Z,17.23
2018-03-19T15:06:44.379Z,16.95
2018-03-19T15:09:11.868Z,16.98
2018-03-19T15:11:39.337Z,17.87
2018-03-19T15:14:06.807Z,17.00
2018-03-19T15:16:35.092Z,15.30
2018-03-19T15:19:02.617Z,16.60
2018-03-19T15:21:30.079Z,16.50
2018-03-19T15:23:57.616Z,15.52
2018-03-19T15:26:25.092Z,16.62
2018-03-19T15:28:52.555Z,17.35
2018-03-19T15:31:20.080Z,17.33
2018-03-19T15:33:47.560Z,15.63
2018-03-19T15:36:15.063Z,15.70
2018-03-19T15:38:42.511Z,17.08
2018-03-19T15:41:10.004Z,16.58
2018-03-19T15:43:37.485Z,17.85
2018-03-19T15:46:05.014Z,17.25
2018-03-19T15:48:32.478Z,16.75
2018-03-19T15:50:59.944Z,17.70
2018-03-19T15:53:27.441Z,16.23
2018-03-19T15:55:54.951Z,16.65
2018-03-19T15:58:22.500Z,17.05
2018-03-19T16:00:50.188Z,18.42
2018-03-19T16:03:17.711Z,18.02
2018-03-19T16:05:45.222Z,18.23
2018-03-19T16:08:12.679Z,16.30
2018-03-19T16:10:40.168Z,18.00
2018-03-19T16:13:07.654Z,17.65
2018-03-19T16:15:35.124Z,18.12
2018-03-19T16:18:02.613Z,17.30
2018-03-19T16:20:31.075Z,18.52
2018-03-19T16:22:58.552Z,18.50
2018-03-19T16:25:26.044Z,20.50
2018-03-19T16:27:53.506Z,17.58
2018-03-19T16:30:20.994Z,20.00
2018-03-19T16:32:48.509Z,18.87
2018-03-19T16:35:15.983Z,19.25
2018-03-19T16:37:43.452Z,19.40
2018-03-19T16:40:10.948Z,19.50
2018-03-19T16:42:38.418Z,19.67
2018-03-19T16:45:05.889Z,17.08
2018-03-19T16:47:33.372Z,18.30
2018-03-19T16:50:00.837Z,17.70
2018-03-19T16:52:28.324Z,18.48
2018-03-19T16:54:55.816Z,18.58
2018-03-19T16:57:23.318Z,18.30
2018-03-19T16:59:50.803Z,20.35
2018-03-19T17:02:18.315Z,18.60
2018-03-19T17:04:45.802Z,19.33
2018-03-19T17:07:13.334Z,17.95
2018-03-19T17:09:40.775Z,22.27
2018-03-19T17:12:08.580Z,20.23
2018-03-19T17:14:38.420Z,20.70
2018-03-19T17:17:06.257Z,21.62
2018-03-19T17:19:33.746Z,20.62
2018-03-19T17:22:01.484Z,17.52
2018-03-19T17:24:29.786Z,21.00
2018-03-19T17:26:57.383Z,19.95
2018-03-19T17:29:24.899Z,20.17
2018-03-19T17:31:52.400Z,19.85
2018-03-19T17:34:19.892Z,18.87
2018-03-19T17:36:51.052Z,18.77
2018-03-19T17:39:19.327Z,18.95
2018-03-19T17:41:48.222Z,17.90
2018-03-19T17:44:16.856Z,18.35
2018-03-19T17:46:44.316Z,17.80
2018-03-19T17:49:11.904Z,19.60
2018-03-19T17:51:39.447Z,18.45
2018-03-19T17:54:06.998Z,18.92
2018-03-19T17:56:35.333Z,18.58
2018-03-19T17:59:02.825Z,17.60
2018-03-19T18:01:30.303Z,18.12
2018-03-19T18:03:57.794Z,17.05
2018-03-19T18:06:26.906Z,18.85
2018-03-19T18:08:54.595Z,17.20
2018-03-19T18:11:23.658Z,18.12
2018-03-19T18:13:51.256Z,18.02
2018-03-19T18:16:18.757Z,18.30
2018-03-19T18:18:46.934Z,19.02
2018-03-19T18:21:14.677Z,18.05
2018-03-19T18:23:42.776Z,17.65
2018-03-19T18:26:10.237Z,16.95
2018-03-19T18:28:37.729Z,16.70
2018-03-19T18:31:05.258Z,16.12
2018-03-19T18:33:33.261Z,18.35
2018-03-19T18:36:00.731Z,18.52
2018-03-19T18:38:28.247Z,17.40
2018-03-19T18:40:56.126Z,18.42
2018-03-19T18:43:23.634Z,19.25
2018-03-19T18:45:51.200Z,18.20
2018-03-19T18:48:18.735Z,17.33
2018-03-19T18:50:46.428Z,19.87
2018-03-19T18:53:13.982Z,19.45
2018-03-19T18:55:41.580Z,19.67
2018-03-19T18:58:09.566Z,19.73
2018-03-19T19:00:37.059Z,18.33
2018-03-19T19:03:04.616Z,19.50
2018-03-19T19:05:32.079Z,21.27
2018-03-19T19:07:59.643Z,19.00
2018-03-19T19:10:27.146Z,19.35
2018-03-19T19:12:55.190Z,20.20
2018-03-19T19:15:22.687Z,18.45
2018-03-19T19:17:50.158Z,20.17
2018-03-19T19:20:18.240Z,19.30
2018-03-19T19:22:45.758Z,19.58
2018-03-19T19:25:13.347Z,20.37
2018-03-19T19:27:40.863Z,21.77
2018-03-19T19:30:08.386Z,19.58
2018-03-19T19:32:37.156Z,20.45
2018-03-19T19:35:05.312Z,19.35
2018-03-19T19:37:32.844Z,21.35
2018-03-19T19:40:00.437Z,19.92
2018-03-19T19:42:28.077Z,21.37
2018-03-19T19:44:55.632Z,21.50
2018-03-19T19:47:23.112Z,21.23
2018-03-19T19:49:50.598Z,21.98
2018-03-19T19:52:18.106Z,21.55
2018-03-19T19:54:45.595Z,23.75
2018-03-19T19:57:13.143Z,21.80
2018-03-19T19:59:40.638Z,21.98
2018-03-19T20:02:08.147Z,21.65
2018-03-19T20:04:35.771Z,21.33
2018-03-19T20:07:03.295Z,22.80
2018-03-19T20:09:30.782Z,21.92
2018-03-19T20:11:58.313Z,21.73
2018-03-19T20:14:25.831Z,22.58
2018-03-19T20:16:53.334Z,21.50
2018-03-19T20:19:20.858Z,21.98
2018-03-19T20:21:48.381Z,22.70
2018-03-19T20:24:16.116Z,21.87
2018-03-19T20:26:43.611Z,23.27
2018-03-19T20:29:11.159Z,21.73
2018-03-19T20:31:38.650Z,22.40
2018-03-19T20:34:06.131Z,22.65
2018-03-19T20:36:33.626Z,23.40
2018-03-19T20:39:01.152Z,23.30
2018-03-19T20:41:28.660Z,22.48
2018-03-19T20:43:56.150Z,23.50
2018-03-19T20:46:23.657Z,22.55
2018-03-19T20:48:51.222Z,23.10
2018-03-19T20:51:18.802Z,23.52
2018-03-19T20:53:46.285Z,23.50
2018-03-19T20:56:13.937Z,23.17
2018-03-19T20:58:41.458Z,22.90
2018-03-19T21:01:09.003Z,23.70
2018-03-19T21:03:36.548Z,23.62
2018-03-19T21:06:04.715Z,23.15
2018-03-19T21:08:32.282Z,23.08
2018-03-19T21:10:59.769Z,24.60
2018-03-19T21:13:27.274Z,24.85
2018-03-19T21:15:54.850Z,26.95
2018-03-19T21:18:22.391Z,26.10
2018-03-19T21:20:49.878Z,25.40
2018-03-19T21:23:17.409Z,26.67
2018-03-19T21:25:44.952Z,28.40
2018-03-19T21:28:12.597Z,33.92
2018-03-19T21:30:40.244Z,32.50
2018-03-19T21:33:07.877Z,28.85
2018-03-19T21:35:35.424Z,29.20
2018-03-19T21:38:02.979Z,28.98
2018-03-19T21:40:30.603Z,24.58
2018-03-19T21:42:58.139Z,28.30
2018-03-19T21:45:25.630Z,28.80
2018-03-19T21:47:53.142Z,26.58
2018-03-19T21:50:20.687Z,25.70
2018-03-19T21:52:48.156Z,26.95
2018-03-19T21:55:16.065Z,25.73
2018-03-19T21:57:43.648Z,25.77
2018-03-19T22:00:11.121Z,26.23
2018-03-19T22:02:38.600Z,27.17
2018-03-19T22:05:06.997Z,26.17
2018-03-19T22:07:34.482Z,26.95
2018-03-19T22:10:01.995Z,26.50
2018-03-19T22:12:31.067Z,27.80
2018-03-19T22:15:02.279Z,26.52
2018-03-19T22:17:29.786Z,24.63
2018-03-19T22:19:57.259Z,25.12
2018-03-19T22:22:24.743Z,27.85
2018-03-19T22:24:52.231Z,25.88
2018-03-19T22:27:19.765Z,24.75
2018-03-19T22:29:47.236Z,25.17
2018-03-19T22:32:14.735Z,24.02
2018-03-19T22:34:42.388Z,25.45
2018-03-19T22:37:09.860Z,24.67
2018-03-19T22:39:37.388Z,24.45
2018-03-19T22:42:04.865Z,24.63
2018-03-19T22:44:33.052Z,24.25
2018-03-19T22:47:02.628Z,24.23
2018-03-19T22:49:30.147Z,25.45
2018-03-19T22:51:57.631Z,24.27
2018-03-19T22:54:25.447Z,22.55
2018-03-19T22:56:53.095Z,22.95
2018-03-19T22:59:20.563Z,23.00
2018-03-19T23:01:48.104Z,23.35
2018-03-19T23:04:27.399Z,25.25
2018-03-19T23:06:54.960Z,21.83
2018-03-19T23:09:22.443Z,23.15
2018-03-19T23:11:49.984Z,23.15
2018-03-19T23:14:17.489Z,22.13
2018-03-19T23:16:44.989Z,21.67
2018-03-19T23:19:12.486Z,22.27
2018-03-19T23:21:39.992Z,22.50
2018-03-19T23:24:07.956Z,25.48
2018-03-19T23:26:35.432Z,21.08
2018-03-19T23:29:02.936Z,22.50
2018-03-19T23:31:30.413Z,20.67
2018-03-19T23:33:57.905Z,22.80
2018-03-19T23:36:25.498Z,22.27
2018-03-19T23:38:52.975Z,21.27
2018-03-19T23:41:20.449Z,20.98
2018-03-19T23:43:48.210Z,22.83
2018-03-19T23:46:16.863Z,21.95
2018-03-19T23:48:44.892Z,21.23
2018-03-19T23:51:13.698Z,21.42
2018-03-19T23:53:41.263Z,21.45
2018-03-19T23:56:08.753Z,22.02
2018-03-19T23:58:36.313Z,20.25
